Terminal Aerodrome Forecast
Issued by NWS

Home | Current Version | Previous Version | Text Only | Print | Product List | Glossary On
Versions: 1 2 3 4 5 6 7 8 9 10 11 12 13 14
937
FTUS42 KTBW 172336
TAFPIE
TAF
KPIE 172336Z 1800/1824 VRB05KT P6SM SKC
     FM181400 10006KT P6SM FEW250
     FM182000 24007KT P6SM SKC=

USA.gov is the U.S. government's official web portal to all federal, state and local government web resources and services.